ANZ652 YMML-YSSY
Flight info
| Callsign | ANZ652 |
|---|---|
| Flight time | 1h 8m |
| Altitude | 37000 |
| Route | DOSEL2/34 DOSEL Y59 RIVET |
| Aircraft | A320/M-SDE3FGHIRWY/LB1 |
Departure
| Time | 2026-05-04 09:01 |
|---|---|
| Airport | Melbourne Airport (YMML) |
Arrival
| Time | 2026-05-04 10:10 |
|---|---|
| Airport | Sydney Kingsford Smith International Airport (YSSY) |
| Time | Latitude | Longitude | Altitude | Speed | Heading |
|---|---|---|---|---|---|
| 2026-05-04 07:54 | -37.66769 | 144.84549 | 396 ft | 0 kts | 136° |
| 2026-05-04 08:37 | -37.66729 | 144.84502 | 394 ft | 2 kts | 154° |
| 2026-05-04 08:37 | -37.66714 | 144.84495 | 395 ft | 2 kts | 171° |
| 2026-05-04 08:37 | -37.66698 | 144.84493 | 397 ft | 2 kts | 190° |
| 2026-05-04 08:38 | -37.66682 | 144.84500 | 397 ft | 2 kts | 224° |
| 2026-05-04 08:38 | -37.66672 | 144.84516 | 398 ft | 2 kts | 240° |
| 2026-05-04 08:38 | -37.66667 | 144.84530 | 399 ft | 0 kts | 260° |
| 2026-05-04 08:47 | -37.66669 | 144.84494 | 396 ft | 11 kts | 266° |
| 2026-05-04 08:47 | -37.66680 | 144.84385 | 404 ft | 14 kts | 261° |
| 2026-05-04 08:47 | -37.66695 | 144.84250 | 394 ft | 17 kts | 261° |
| 2026-05-04 08:47 | -37.66703 | 144.84183 | 396 ft | 1 kts | 261° |
| 2026-05-04 08:48 | -37.66710 | 144.84131 | 395 ft | 11 kts | 261° |
| 2026-05-04 08:48 | -37.66725 | 144.84021 | 394 ft | 14 kts | 247° |
| 2026-05-04 08:48 | -37.66823 | 144.83990 | 391 ft | 18 kts | 171° |
| 2026-05-04 08:48 | -37.66962 | 144.84015 | 386 ft | 22 kts | 170° |
| 2026-05-04 08:49 | -37.67115 | 144.84044 | 382 ft | 21 kts | 172° |
| 2026-05-04 08:50 | -37.67671 | 144.84147 | 366 ft | 0 kts | 172° |
| 2026-05-04 08:51 | -37.67679 | 144.84148 | 368 ft | 4 kts | 172° |
| 2026-05-04 08:52 | -37.67720 | 144.84156 | 366 ft | 8 kts | 171° |
| 2026-05-04 08:52 | -37.67769 | 144.84166 | 368 ft | 0 kts | 171° |
| 2026-05-04 08:54 | -37.67770 | 144.84166 | 363 ft | 1 kts | 171° |
| 2026-05-04 08:55 | -37.67797 | 144.84172 | 362 ft | 7 kts | 170° |
| 2026-05-04 08:55 | -37.67851 | 144.84174 | 361 ft | 6 kts | 193° |
| 2026-05-04 08:55 | -37.67854 | 144.84172 | 359 ft | 0 kts | 198° |
| 2026-05-04 09:01 | -37.67718 | 144.83939 | 362 ft | 50 kts | 352° |
| 2026-05-04 09:01 | -37.67164 | 144.83835 | 381 ft | 107 kts | 351° |
| 2026-05-04 09:01 | -37.66275 | 144.83674 | 433 ft | 146 kts | 353° |
| 2026-05-04 09:01 | -37.65279 | 144.83478 | 1043 ft | 143 kts | 352° |
| 2026-05-04 09:02 | -37.64309 | 144.83290 | 1734 ft | 142 kts | 347° |
| 2026-05-04 09:02 | -37.63323 | 144.83101 | 2320 ft | 147 kts | 345° |
| 2026-05-04 09:02 | -37.62233 | 144.82885 | 2598 ft | 169 kts | 345° |
| 2026-05-04 09:02 | -37.60990 | 144.82637 | 2834 ft | 194 kts | 345° |
| 2026-05-04 09:03 | -37.59563 | 144.82387 | 3189 ft | 222 kts | 352° |
| 2026-05-04 09:03 | -37.57984 | 144.82903 | 3730 ft | 253 kts | 18° |
| 2026-05-04 09:03 | -37.56376 | 144.83893 | 4576 ft | 262 kts | 19° |
| 2026-05-04 09:03 | -37.54724 | 144.84912 | 4915 ft | 266 kts | 19° |
| 2026-05-04 09:04 | -37.53057 | 144.85944 | 5015 ft | 267 kts | 19° |
| 2026-05-04 09:04 | -37.51389 | 144.86974 | 5030 ft | 266 kts | 19° |
| 2026-05-04 09:04 | -37.49705 | 144.88006 | 5218 ft | 279 kts | 19° |
| 2026-05-04 09:04 | -37.47887 | 144.89099 | 5720 ft | 298 kts | 19° |
| 2026-05-04 09:05 | -37.45995 | 144.90237 | 6526 ft | 304 kts | 20° |
| 2026-05-04 09:05 | -37.44134 | 144.91589 | 7325 ft | 316 kts | 32° |
| 2026-05-04 09:05 | -37.42564 | 144.93594 | 8141 ft | 328 kts | 49° |
| 2026-05-04 09:05 | -37.41236 | 144.95960 | 8980 ft | 333 kts | 51° |
| 2026-05-04 09:06 | -37.39894 | 144.98355 | 9783 ft | 337 kts | 51° |
| 2026-05-04 09:07 | -37.29936 | 145.15937 | 14441 ft | 377 kts | 51° |
| 2026-05-04 09:08 | -37.28406 | 145.18633 | 15025 ft | 381 kts | 51° |
| 2026-05-04 09:08 | -37.26863 | 145.21357 | 15644 ft | 384 kts | 51° |
| 2026-05-04 09:08 | -37.25316 | 145.24081 | 16241 ft | 387 kts | 51° |
| 2026-05-04 09:08 | -37.23732 | 145.26866 | 16852 ft | 391 kts | 51° |
| 2026-05-04 09:09 | -37.22148 | 145.29650 | 17470 ft | 394 kts | 51° |
| 2026-05-04 09:09 | -37.20571 | 145.32418 | 18080 ft | 397 kts | 51° |
| 2026-05-04 09:09 | -37.18953 | 145.35250 | 18646 ft | 400 kts | 50° |
| 2026-05-04 09:09 | -37.17327 | 145.38097 | 19197 ft | 403 kts | 50° |
| 2026-05-04 09:10 | -37.15691 | 145.40964 | 19756 ft | 406 kts | 50° |
| 2026-05-04 09:10 | -37.14043 | 145.43847 | 20316 ft | 408 kts | 50° |
| 2026-05-04 09:10 | -37.12381 | 145.46746 | 20866 ft | 411 kts | 50° |
| 2026-05-04 09:10 | -37.10710 | 145.49655 | 21373 ft | 414 kts | 50° |
| 2026-05-04 09:11 | -37.09021 | 145.52590 | 21876 ft | 416 kts | 50° |
| 2026-05-04 09:11 | -37.07324 | 145.55542 | 22359 ft | 419 kts | 50° |
| 2026-05-04 09:11 | -37.05615 | 145.58515 | 22844 ft | 422 kts | 50° |
| 2026-05-04 09:11 | -37.03893 | 145.61509 | 23330 ft | 425 kts | 50° |
| 2026-05-04 09:12 | -37.02159 | 145.64519 | 23767 ft | 427 kts | 49° |
| 2026-05-04 09:12 | -37.00416 | 145.67538 | 24165 ft | 430 kts | 49° |
| 2026-05-04 09:14 | -36.87893 | 145.89182 | 26856 ft | 447 kts | 45° |
| 2026-05-04 09:14 | -36.86059 | 145.92335 | 27247 ft | 450 kts | 45° |
| 2026-05-04 09:14 | -36.84215 | 145.95503 | 27631 ft | 452 kts | 45° |
| 2026-05-04 09:14 | -36.82361 | 145.98691 | 28035 ft | 455 kts | 45° |
| 2026-05-04 09:15 | -36.80494 | 146.01894 | 28384 ft | 457 kts | 44° |
| 2026-05-04 09:15 | -36.78616 | 146.05113 | 28752 ft | 460 kts | 44° |
| 2026-05-04 09:15 | -36.76727 | 146.08349 | 29115 ft | 463 kts | 44° |
| 2026-05-04 09:15 | -36.74827 | 146.11601 | 29472 ft | 465 kts | 44° |
| 2026-05-04 09:17 | -36.59531 | 146.37667 | 32655 ft | 468 kts | 44° |
| 2026-05-04 09:18 | -36.57608 | 146.40934 | 33040 ft | 468 kts | 44° |
| 2026-05-04 09:18 | -36.55682 | 146.44204 | 33427 ft | 469 kts | 44° |
| 2026-05-04 09:18 | -36.53752 | 146.47474 | 33833 ft | 469 kts | 44° |
| 2026-05-04 09:18 | -36.51820 | 146.50738 | 34196 ft | 470 kts | 44° |
| 2026-05-04 09:19 | -36.49874 | 146.54021 | 34517 ft | 471 kts | 45° |
| 2026-05-04 09:19 | -36.47936 | 146.57293 | 34818 ft | 471 kts | 45° |
| 2026-05-04 09:19 | -36.45991 | 146.60576 | 35111 ft | 472 kts | 45° |
| 2026-05-04 09:19 | -36.44040 | 146.63868 | 35397 ft | 473 kts | 45° |
| 2026-05-04 09:20 | -36.42086 | 146.67165 | 35686 ft | 474 kts | 45° |
| 2026-05-04 09:20 | -36.40131 | 146.70459 | 35958 ft | 475 kts | 45° |
| 2026-05-04 09:20 | -36.38167 | 146.73761 | 36234 ft | 476 kts | 45° |
| 2026-05-04 09:20 | -36.36198 | 146.77064 | 36509 ft | 476 kts | 45° |
| 2026-05-04 09:21 | -36.34226 | 146.80369 | 36783 ft | 477 kts | 46° |
| 2026-05-04 09:21 | -36.32250 | 146.83683 | 36991 ft | 478 kts | 46° |
| 2026-05-04 09:21 | -36.28267 | 146.90347 | 37050 ft | 483 kts | 46° |
| 2026-05-04 09:22 | -36.24258 | 146.97028 | 37050 ft | 483 kts | 46° |
| 2026-05-04 09:22 | -36.20246 | 147.03697 | 37051 ft | 482 kts | 46° |
| 2026-05-04 09:23 | -36.16240 | 147.10354 | 37057 ft | 482 kts | 45° |
| 2026-05-04 09:23 | -36.12260 | 147.16982 | 37051 ft | 481 kts | 45° |
| 2026-05-04 09:25 | -35.96175 | 147.43544 | 37068 ft | 493 kts | 45° |
| 2026-05-04 09:26 | -35.92027 | 147.50350 | 37070 ft | 497 kts | 45° |
| 2026-05-04 09:26 | -35.87873 | 147.57174 | 37077 ft | 498 kts | 45° |
| 2026-05-04 09:27 | -35.83741 | 147.63957 | 37074 ft | 498 kts | 45° |
| 2026-05-04 09:27 | -35.79572 | 147.70776 | 37082 ft | 498 kts | 45° |
| 2026-05-04 09:28 | -35.75390 | 147.77583 | 37079 ft | 498 kts | 45° |
| 2026-05-04 09:28 | -35.71201 | 147.84385 | 37081 ft | 499 kts | 45° |
| 2026-05-04 09:29 | -35.67015 | 147.91195 | 37085 ft | 499 kts | 45° |
| 2026-05-04 09:29 | -35.62833 | 147.97989 | 37077 ft | 499 kts | 44° |
| 2026-05-04 09:30 | -35.58632 | 148.04779 | 37073 ft | 499 kts | 44° |
| 2026-05-04 09:30 | -35.54431 | 148.11568 | 37083 ft | 499 kts | 44° |
| 2026-05-04 09:31 | -35.50225 | 148.18360 | 37079 ft | 499 kts | 44° |
| 2026-05-04 09:31 | -35.46010 | 148.25128 | 37085 ft | 499 kts | 44° |
| 2026-05-04 09:32 | -35.41795 | 148.31898 | 37095 ft | 500 kts | 44° |
| 2026-05-04 09:34 | -35.24954 | 148.58823 | 37093 ft | 486 kts | 44° |
| 2026-05-04 09:34 | -35.20863 | 148.65347 | 37090 ft | 482 kts | 43° |
| 2026-05-04 09:35 | -35.16771 | 148.71826 | 37090 ft | 481 kts | 43° |
| 2026-05-04 09:35 | -35.12682 | 148.78293 | 37088 ft | 481 kts | 43° |
| 2026-05-04 09:37 | -34.94315 | 148.87165 | 36500 ft | 427 kts | 2° |
| 2026-05-04 09:37 | -34.91417 | 148.87907 | 36250 ft | 426 kts | 2° |
| 2026-05-04 09:38 | -34.88511 | 148.88655 | 36005 ft | 426 kts | 2° |
| 2026-05-04 09:38 | -34.85616 | 148.89401 | 35763 ft | 425 kts | 2° |
| 2026-05-04 09:38 | -34.82725 | 148.90150 | 35516 ft | 425 kts | 2° |
| 2026-05-04 09:38 | -34.79837 | 148.90901 | 35274 ft | 424 kts | 2° |
| 2026-05-04 09:39 | -34.76985 | 148.91982 | 35034 ft | 440 kts | 15° |
| 2026-05-04 09:39 | -34.74372 | 148.94067 | 34788 ft | 463 kts | 33° |
| 2026-05-04 09:39 | -34.72320 | 148.97198 | 34557 ft | 488 kts | 53° |
| 2026-05-04 09:39 | -34.71158 | 149.01159 | 34323 ft | 510 kts | 74° |
| 2026-05-04 09:40 | -34.71024 | 149.05537 | 34104 ft | 524 kts | 88° |
| 2026-05-04 09:40 | -34.71300 | 149.09954 | 34084 ft | 527 kts | 91° |
| 2026-05-04 09:40 | -34.72172 | 149.18782 | 34091 ft | 529 kts | 93° |
| 2026-05-04 09:42 | -34.68311 | 149.52082 | 30990 ft | 489 kts | 53° |
| 2026-05-04 09:43 | -34.66714 | 149.55724 | 30295 ft | 488 kts | 54° |
| 2026-05-04 09:43 | -34.65138 | 149.59335 | 29683 ft | 477 kts | 54° |
| 2026-05-04 09:43 | -34.63610 | 149.62853 | 29115 ft | 468 kts | 54° |
| 2026-05-04 09:43 | -34.62096 | 149.66326 | 28543 ft | 464 kts | 53° |
| 2026-05-04 09:44 | -34.60607 | 149.69737 | 28244 ft | 447 kts | 53° |
| 2026-05-04 09:44 | -34.59183 | 149.73006 | 27698 ft | 431 kts | 53° |
| 2026-05-04 09:44 | -34.57789 | 149.76186 | 26953 ft | 423 kts | 53° |
| 2026-05-04 09:46 | -34.47623 | 149.97040 | 23863 ft | 388 kts | 40° |
| 2026-05-04 09:46 | -34.45874 | 149.99523 | 23399 ft | 386 kts | 40° |
| 2026-05-04 09:46 | -34.44062 | 150.01798 | 22925 ft | 372 kts | 30° |
| 2026-05-04 09:47 | -34.42027 | 150.03757 | 22104 ft | 377 kts | 30° |
| 2026-05-04 09:47 | -34.39982 | 150.05712 | 21461 ft | 372 kts | 30° |
| 2026-05-04 09:49 | -34.26229 | 150.18805 | 16874 ft | 344 kts | 31° |
| 2026-05-04 09:49 | -34.24326 | 150.20600 | 16618 ft | 347 kts | 32° |
| 2026-05-04 09:49 | -34.22420 | 150.22392 | 16292 ft | 347 kts | 31° |
| 2026-05-04 09:51 | -34.12679 | 150.34601 | 13171 ft | 353 kts | 68° |
| 2026-05-04 09:51 | -34.12060 | 150.37425 | 12637 ft | 352 kts | 70° |
| 2026-05-04 09:51 | -34.11446 | 150.40267 | 12110 ft | 350 kts | 70° |
| 2026-05-04 09:51 | -34.10822 | 150.43116 | 11561 ft | 351 kts | 70° |
| 2026-05-04 09:52 | -34.10194 | 150.45963 | 11050 ft | 351 kts | 70° |
| 2026-05-04 09:52 | -34.09569 | 150.48810 | 10532 ft | 350 kts | 70° |
| 2026-05-04 09:52 | -34.08962 | 150.51602 | 10404 ft | 338 kts | 70° |
| 2026-05-04 09:52 | -34.08390 | 150.54264 | 10267 ft | 317 kts | 70° |
| 2026-05-04 09:53 | -34.07855 | 150.56788 | 9884 ft | 306 kts | 70° |
| 2026-05-04 09:53 | -34.07328 | 150.59248 | 9650 ft | 301 kts | 70° |
| 2026-05-04 09:53 | -34.06800 | 150.61686 | 9516 ft | 300 kts | 70° |
| 2026-05-04 09:53 | -34.06271 | 150.64124 | 9314 ft | 300 kts | 70° |
| 2026-05-04 09:54 | -34.05740 | 150.66561 | 8941 ft | 300 kts | 70° |
| 2026-05-04 09:54 | -34.05208 | 150.69002 | 8545 ft | 301 kts | 70° |
| 2026-05-04 09:54 | -34.04678 | 150.71448 | 8204 ft | 300 kts | 70° |
| 2026-05-04 09:54 | -34.04151 | 150.73884 | 7841 ft | 300 kts | 70° |
| 2026-05-04 09:55 | -34.03624 | 150.76322 | 7444 ft | 301 kts | 70° |
| 2026-05-04 09:55 | -34.03103 | 150.78732 | 7107 ft | 294 kts | 70° |
| 2026-05-04 09:55 | -34.02567 | 150.81114 | 6837 ft | 292 kts | 69° |
| 2026-05-04 09:55 | -34.02017 | 150.83460 | 6681 ft | 289 kts | 69° |
| 2026-05-04 09:56 | -34.01466 | 150.85770 | 6523 ft | 288 kts | 68° |
| 2026-05-04 09:56 | -34.00910 | 150.88103 | 6363 ft | 287 kts | 68° |
| 2026-05-04 09:56 | -34.00362 | 150.90413 | 6203 ft | 286 kts | 68° |
| 2026-05-04 09:56 | -33.99819 | 150.92711 | 6060 ft | 285 kts | 68° |
| 2026-05-04 09:57 | -33.99281 | 150.94997 | 6008 ft | 283 kts | 68° |
| 2026-05-04 09:57 | -33.98751 | 150.97248 | 6010 ft | 283 kts | 68° |
| 2026-05-04 09:57 | -33.98232 | 150.99541 | 6011 ft | 284 kts | 69° |
| 2026-05-04 09:57 | -33.97750 | 151.01850 | 6009 ft | 284 kts | 70° |
| 2026-05-04 09:58 | -33.97283 | 151.04158 | 6005 ft | 283 kts | 70° |
| 2026-05-04 09:58 | -33.96817 | 151.06470 | 6009 ft | 284 kts | 71° |
| 2026-05-04 09:58 | -33.96350 | 151.08784 | 6006 ft | 285 kts | 70° |
| 2026-05-04 10:00 | -33.95600 | 151.24799 | 6015 ft | 302 kts | 130° |
| 2026-05-04 10:00 | -33.97043 | 151.26641 | 6011 ft | 302 kts | 133° |
| 2026-05-04 10:02 | -34.08666 | 151.36744 | 5646 ft | 301 kts | 168° |
| 2026-05-04 10:04 | -34.21256 | 151.35964 | 3786 ft | 232 kts | 262° |
| 2026-05-04 10:04 | -34.21254 | 151.34130 | 3414 ft | 213 kts | 294° |
| 2026-05-04 10:04 | -34.20458 | 151.32694 | 2920 ft | 206 kts | 319° |
| 2026-05-04 10:04 | -34.19387 | 151.31542 | 2415 ft | 207 kts | 322° |
| 2026-05-04 10:05 | -34.18284 | 151.30427 | 2051 ft | 205 kts | 323° |
| 2026-05-04 10:05 | -34.17173 | 151.29298 | 2011 ft | 210 kts | 323° |
| 2026-05-04 10:05 | -34.16050 | 151.28163 | 2008 ft | 210 kts | 323° |
| 2026-05-04 10:05 | -34.14929 | 151.27036 | 2006 ft | 210 kts | 323° |
| 2026-05-04 10:06 | -34.13801 | 151.25887 | 2019 ft | 214 kts | 323° |
| 2026-05-04 10:06 | -34.12666 | 151.24721 | 2018 ft | 214 kts | 322° |
| 2026-05-04 10:06 | -34.11539 | 151.23582 | 2012 ft | 210 kts | 324° |
| 2026-05-04 10:08 | -34.04232 | 151.21243 | 1438 ft | 170 kts | 349° |
| 2026-05-04 10:08 | -34.03108 | 151.20950 | 1238 ft | 161 kts | 349° |
| 2026-05-04 10:08 | -34.02042 | 151.20673 | 1041 ft | 155 kts | 348° |
| 2026-05-04 10:08 | -34.01023 | 151.20407 | 831 ft | 145 kts | 348° |
| 2026-05-04 10:09 | -34.00051 | 151.20155 | 652 ft | 137 kts | 350° |
| 2026-05-04 10:09 | -33.99147 | 151.19919 | 464 ft | 132 kts | 350° |
| 2026-05-04 10:09 | -33.98256 | 151.19691 | 296 ft | 133 kts | 349° |
| 2026-05-04 10:09 | -33.97366 | 151.19447 | 121 ft | 130 kts | 351° |
| 2026-05-04 10:10 | -33.96502 | 151.19229 | 30 ft | 116 kts | 348° |
| 2026-05-04 10:10 | -33.95987 | 151.19096 | 28 ft | 37 kts | 347° |
| 2026-05-04 10:10 | -33.95700 | 151.19020 | 26 ft | 46 kts | 347° |
| 2026-05-04 10:10 | -33.95487 | 151.18958 | 27 ft | 26 kts | 343° |
| 2026-05-04 10:11 | -33.95311 | 151.18860 | 25 ft | 30 kts | 326° |
| 2026-05-04 10:11 | -33.95209 | 151.18761 | 29 ft | 10 kts | 319° |
| 2026-05-04 10:11 | -33.95150 | 151.18699 | 30 ft | 12 kts | 319° |
| 2026-05-04 10:11 | -33.95141 | 151.18690 | 30 ft | 0 kts | 319° |
| 2026-05-04 10:12 | -33.95134 | 151.18682 | 30 ft | 3 kts | 318° |
| 2026-05-04 10:12 | -33.95114 | 151.18659 | 30 ft | 5 kts | 315° |
| 2026-05-04 10:13 | -33.95089 | 151.18616 | 30 ft | 7 kts | 292° |
| 2026-05-04 10:13 | -33.95094 | 151.18545 | 30 ft | 10 kts | 259° |
| 2026-05-04 10:13 | -33.95111 | 151.18454 | 30 ft | 12 kts | 258° |
| 2026-05-04 10:13 | -33.95130 | 151.18343 | 30 ft | 15 kts | 258° |
| 2026-05-04 10:14 | -33.95152 | 151.18222 | 30 ft | 12 kts | 257° |
| 2026-05-04 10:14 | -33.95172 | 151.18110 | 30 ft | 15 kts | 258° |
| 2026-05-04 10:16 | -33.94666 | 151.17831 | 30 ft | 0 kts | 347° |
| 2026-05-04 10:17 | -33.94661 | 151.17830 | 30 ft | 2 kts | 347° |
| 2026-05-04 10:19 | -33.93865 | 151.17666 | 29 ft | 17 kts | 73° |
| 2026-05-04 10:19 | -33.93830 | 151.17811 | 30 ft | 15 kts | 73° |
| 2026-05-04 10:19 | -33.93813 | 151.17886 | 30 ft | 10 kts | 76° |
| 2026-05-04 10:19 | -33.93790 | 151.17982 | 30 ft | 14 kts | 74° |
| 2026-05-04 10:20 | -33.93763 | 151.18104 | 30 ft | 17 kts | 74° |
| 2026-05-04 10:20 | -33.93728 | 151.18250 | 30 ft | 18 kts | 74° |
| 2026-05-04 10:20 | -33.93697 | 151.18380 | 30 ft | 16 kts | 74° |
| 2026-05-04 10:20 | -33.93663 | 151.18523 | 30 ft | 19 kts | 73° |
| 2026-05-04 10:21 | -33.93641 | 151.18607 | 30 ft | 0 kts | 73° |
| 2026-05-04 10:21 | -33.93638 | 151.18620 | 30 ft | 3 kts | 73° |
| 2026-05-04 10:21 | -33.93618 | 151.18635 | 30 ft | 5 kts | 351° |
| 2026-05-04 10:21 | -33.93603 | 151.18618 | 30 ft | 2 kts | 302° |
| 2026-05-04 10:22 | -33.93576 | 151.18537 | 30 ft | 7 kts | 301° |
| 2026-05-04 10:22 | -33.93539 | 151.18523 | 30 ft | 4 kts | 14° |
| 2026-05-04 10:22 | -33.93524 | 151.18526 | 30 ft | 0 kts | 12° |